Portada
METAR-TAF:

METAR-TAF

Aeropuertos :

Aeropuerto de Trapani-Birgi

Trapani, Italia

latitud: 37-55N, longitud: 012-30E, altitud: 7 m

Observación

El informe se hizo hace 1 hora y 11 minutos, a las 00:55 UTC
Viento 22 kt del oeste-noroeste
Temperatura 14°C
Humedad 67%
Presión 1016 hPa
Visibilidad 10 km o más
sin nubes por debajo de 1500 m y sin presencia de cumulonimbus.

METAR: LICT 270055Z 30022KT CAVOK 14/08 Q1016 RMK SKC VIS MIN 9999 WIND THR13 27022KT BLU

Hora: 03:06 (02:06 UTC)

Pronóstico

El informe se hizo hace 3 horas y 6 minutos, a las 23:00 UTC
Pronóstico válido del 27 a las 00 UTC al 27 a las 09 UTC
Viento 15 kt del noroeste con ráfagas de 25 kt
Visibilidad 10 km o más
Nubes dispersas a una altura de 2000 ft

TAF: LICT 262300Z 2700/2709 31015G25KT 9999 SCT020

Observaciones y pronósticos meteorológicos de más de 4000 aeropuertos (mensajes METAR y TAF).

Los puntos amarillos y rojos representan las estaciones disponibles.

Ponga el ratón en el punto deseado para ver el nombre de la estación.

Haga clic para ver las observaciones y los pronósticos meteorológicos.

Para cambiar el mapa : haga clic en los botones verdes con una cruz de color negro para hacer un zoom, en el botón verde con un guión para alejar o en las flechas verdes para mapas adyacentes.


METAR-TAF: